sensor_id;sensor_type;location;lat;lon;timestamp;pressure;altitude;pressure_sealevel;temperature;humidity
21129;BME280;10722;51.910;8.352;2023-04-01T00:00:52;98716.91;;;8.85;100.00
21129;BME280;10722;51.910;8.352;2023-04-01T00:03:37;98725.50;;;8.84;100.00
21129;BME280;10722;51.910;8.352;2023-04-01T00:06:24;98715.19;;;8.81;100.00
21129;BME280;10722;51.910;8.352;2023-04-01T00:09:09;98710.03;;;8.83;100.00
21129;BME280;10722;51.910;8.352;2023-04-01T00:11:54;98720.34;;;8.84;100.00
21129;BME280;10722;51.910;8.352;2023-04-01T00:14:40;98716.91;;;8.82;100.00
21129;BME280;10722;51.910;8.352;2023-04-01T00:17:25;98716.97;;;8.76;100.00
21129;BME280;10722;51.910;8.352;2023-04-01T00:20:10;98717.78;;;8.80;100.00
21129;BME280;10722;51.910;8.352;2023-04-01T00:22:56;98712.63;;;8.81;100.00
21129;BME280;10722;51.910;8.352;2023-04-01T00:25:41;98715.25;;;8.75;100.00
21129;BME280;10722;51.910;8.352;2023-04-01T00:28:27;98705.78;;;8.75;100.00
21129;BME280;10722;51.910;8.352;2023-04-01T00:31:13;98711.78;;;8.79;100.00
21129;BME280;10722;51.910;8.352;2023-04-01T00:33:59;98704.03;;;8.81;100.00
21129;BME280;10722;51.910;8.352;2023-04-01T00:36:44;98698.88;;;8.82;100.00
21129;BME280;10722;51.910;8.352;2023-04-01T00:39:30;98701.44;;;8.85;100.00
21129;BME280;10722;51.910;8.352;2023-04-01T00:42:15;98688.56;;;8.81;100.00
21129;BME280;10722;51.910;8.352;2023-04-01T00:45:23;98694.56;;;8.83;100.00
21129;BME280;10722;51.910;8.352;2023-04-01T00:48:13;98697.13;;;8.86;100.00
21129;BME280;10722;51.910;8.352;2023-04-01T00:51:11;98694.53;;;8.87;100.00
21129;BME280;10722;51.910;8.352;2023-04-01T00:54:00;98685.94;;;8.85;100.00
21129;BME280;10722;51.910;8.352;2023-04-01T00:56:48;98686.81;;;8.86;100.00
21129;BME280;10722;51.910;8.352;2023-04-01T00:59:41;98683.34;;;8.88;100.00
21129;BME280;10722;51.910;8.352;2023-04-01T01:02:27;98685.94;;;8.88;100.00
21129;BME280;10722;51.910;8.352;2023-04-01T01:05:15;98673.88;;;8.90;100.00
21129;BME280;10722;51.910;8.352;2023-04-01T01:08:20;98672.19;;;8.88;100.00
21129;BME280;10722;51.910;8.352;2023-04-01T01:11:10;98680.78;;;8.90;100.00
21129;BME280;10722;51.910;8.352;2023-04-01T01:14:01;98673.03;;;8.88;100.00
21129;BME280;10722;51.910;8.352;2023-04-01T01:17:01;98673.88;;;8.89;100.00
21129;BME280;10722;51.910;8.352;2023-04-01T01:32:50;98674.81;;;8.80;100.00
21129;BME280;10722;51.910;8.352;2023-04-01T01:38:31;98665.38;;;8.78;100.00
21129;BME280;10722;51.910;8.352;2023-04-01T01:41:19;98669.69;;;8.77;100.00
21129;BME280;10722;51.910;8.352;2023-04-01T01:44:13;98676.59;;;8.73;100.00
21129;BME280;10722;51.910;8.352;2023-04-01T01:47:01;98669.75;;;8.71;100.00
21129;BME280;10722;51.910;8.352;2023-04-01T01:49:46;98663.75;;;8.66;100.00
21129;BME280;10722;51.910;8.352;2023-04-01T01:52:31;98671.50;;;8.61;100.00
21129;BME280;10722;51.910;8.352;2023-04-01T01:55:27;98680.16;;;8.57;100.00
21129;BME280;10722;51.910;8.352;2023-04-01T02:01:06;98675.88;;;8.56;100.00
21129;BME280;10722;51.910;8.352;2023-04-01T02:03:55;98675.91;;;8.51;100.00
21129;BME280;10722;51.910;8.352;2023-04-01T02:06:47;98679.31;;;8.53;100.00
21129;BME280;10722;51.910;8.352;2023-04-01T02:09:35;98687.91;;;8.54;100.00
21129;BME280;10722;51.910;8.352;2023-04-01T02:12:22;98686.19;;;8.55;100.00
21129;BME280;10722;51.910;8.352;2023-04-01T02:15:11;98681.88;;;8.55;100.00
21129;BME280;10722;51.910;8.352;2023-04-01T02:17:57;98684.47;;;8.53;100.00
21129;BME280;10722;51.910;8.352;2023-04-01T02:20:44;98671.56;;;8.57;100.00
21129;BME280;10722;51.910;8.352;2023-04-01T02:23:29;98672.41;;;8.56;100.00
21129;BME280;10722;51.910;8.352;2023-04-01T02:26:15;98677.53;;;8.59;100.00
21129;BME280;10722;51.910;8.352;2023-04-01T02:29:03;98681.81;;;8.61;100.00
21129;BME280;10722;51.910;8.352;2023-04-01T02:31:51;98670.66;;;8.61;100.00
21129;BME280;10722;51.910;8.352;2023-04-01T02:34:36;98668.97;;;8.60;100.00
21129;BME280;10722;51.910;8.352;2023-04-01T02:37:22;98666.38;;;8.60;100.00
21129;BME280;10722;51.910;8.352;2023-04-01T02:40:13;98664.66;;;8.62;100.00
21129;BME280;10722;51.910;8.352;2023-04-01T02:42:59;98673.19;;;8.67;100.00
21129;BME280;10722;51.910;8.352;2023-04-01T02:45:44;98655.19;;;8.65;100.00
21129;BME280;10722;51.910;8.352;2023-04-01T02:48:30;98664.63;;;8.68;100.00
21129;BME280;10722;51.910;8.352;2023-04-01T02:51:15;98663.72;;;8.69;100.00
21129;BME280;10722;51.910;8.352;2023-04-01T02:54:02;98665.47;;;8.67;100.00
21129;BME280;10722;51.910;8.352;2023-04-01T02:56:48;98656.03;;;8.66;100.00
21129;BME280;10722;51.910;8.352;2023-04-01T02:59:33;98653.44;;;8.67;100.00
21129;BME280;10722;51.910;8.352;2023-04-01T03:02:19;98671.47;;;8.69;100.00
21129;BME280;10722;51.910;8.352;2023-04-01T03:05:05;98663.72;;;8.69;100.00
21129;BME280;10722;51.910;8.352;2023-04-01T03:07:50;98666.34;;;8.67;100.00
21129;BME280;10722;51.910;8.352;2023-04-01T03:10:35;98659.47;;;8.68;100.00
21129;BME280;10722;51.910;8.352;2023-04-01T03:13:21;98663.72;;;8.70;100.00
21129;BME280;10722;51.910;8.352;2023-04-01T03:16:06;98665.44;;;8.70;100.00
21129;BME280;10722;51.910;8.352;2023-04-01T03:18:52;98661.13;;;8.72;100.00
21129;BME280;10722;51.910;8.352;2023-04-01T03:21:37;98668.88;;;8.70;100.00
21129;BME280;10722;51.910;8.352;2023-04-01T03:24:22;98664.63;;;8.63;100.00
21129;BME280;10722;51.910;8.352;2023-04-01T03:27:07;98668.97;;;8.58;100.00
21129;BME280;10722;51.910;8.352;2023-04-01T03:29:53;98668.97;;;8.60;100.00
21129;BME280;10722;51.910;8.352;2023-04-01T03:32:38;98674.16;;;8.57;100.00
21129;BME280;10722;51.910;8.352;2023-04-01T03:35:24;98675.91;;;8.51;100.00
21129;BME280;10722;51.910;8.352;2023-04-01T03:38:09;98675.91;;;8.51;100.00
21129;BME280;10722;51.910;8.352;2023-04-01T03:40:54;98681.06;;;8.47;100.00
21129;BME280;10722;51.910;8.352;2023-04-01T03:43:39;98678.53;;;8.45;100.00
21129;BME280;10722;51.910;8.352;2023-04-01T03:46:25;98680.22;;;8.46;100.00
21129;BME280;10722;51.910;8.352;2023-04-01T03:49:11;98683.69;;;8.41;100.00
21129;BME280;10722;51.910;8.352;2023-04-01T03:51:57;98688.00;;;8.40;100.00
21129;BME280;10722;51.910;8.352;2023-04-01T03:54:42;98691.44;;;8.39;100.00
21129;BME280;10722;51.910;8.352;2023-04-01T03:57:27;98676.81;;;8.38;100.00
21129;BME280;10722;51.910;8.352;2023-04-01T04:00:13;98689.72;;;8.40;100.00
21129;BME280;10722;51.910;8.352;2023-04-01T04:02:58;98685.41;;;8.37;100.00
21129;BME280;10722;51.910;8.352;2023-04-01T04:05:48;98691.44;;;8.39;100.00
21129;BME280;10722;51.910;8.352;2023-04-01T04:08:34;98700.88;;;8.39;100.00
21129;BME280;10722;51.910;8.352;2023-04-01T04:11:21;98706.03;;;8.40;100.00
21129;BME280;10722;51.910;8.352;2023-04-01T04:14:06;98698.31;;;8.40;100.00
21129;BME280;10722;51.910;8.352;2023-04-01T04:16:51;98700.88;;;8.37;100.00
21129;BME280;10722;51.910;8.352;2023-04-01T04:19:37;98698.31;;;8.34;100.00
21129;BME280;10722;51.910;8.352;2023-04-01T04:22:22;98697.47;;;8.32;100.00
21129;BME280;10722;51.910;8.352;2023-04-01T04:25:08;98709.47;;;8.30;100.00
21129;BME280;10722;51.910;8.352;2023-04-01T04:27:53;98702.63;;;8.29;100.00
21129;BME280;10722;51.910;8.352;2023-04-01T04:30:39;98701.78;;;8.27;100.00
21129;BME280;10722;51.910;8.352;2023-04-01T04:33:25;98712.91;;;8.30;100.00
21129;BME280;10722;51.910;8.352;2023-04-01T04:36:10;98705.22;;;8.26;100.00
21129;BME280;10722;51.910;8.352;2023-04-01T04:38:55;98707.78;;;8.27;100.00
21129;BME280;10722;51.910;8.352;2023-04-01T04:41:41;98712.13;;;8.21;100.00
21129;BME280;10722;51.910;8.352;2023-04-01T04:44:26;98725.00;;;8.21;100.00
21129;BME280;10722;51.910;8.352;2023-04-01T04:47:11;98725.00;;;8.18;100.00
21129;BME280;10722;51.910;8.352;2023-04-01T04:49:57;98725.00;;;8.16;100.00
21129;BME280;10722;51.910;8.352;2023-04-01T04:52:42;98725.03;;;8.15;100.00
21129;BME280;10722;51.910;8.352;2023-04-01T04:55:27;98734.47;;;8.13;100.00
21129;BME280;10722;51.910;8.352;2023-04-01T04:58:13;98739.63;;;8.13;100.00
21129;BME280;10722;51.910;8.352;2023-04-01T05:00:58;98738.78;;;8.07;100.00
21129;BME280;10722;51.910;8.352;2023-04-01T05:03:44;98743.09;;;8.05;100.00
21129;BME280;10722;51.910;8.352;2023-04-01T05:06:30;98745.69;;;8.04;100.00
21129;BME280;10722;51.910;8.352;2023-04-01T05:09:15;98747.38;;;8.06;100.00
21129;BME280;10722;51.910;8.352;2023-04-01T05:12:00;98753.41;;;8.05;100.00
21129;BME280;10722;51.910;8.352;2023-04-01T05:14:45;98754.25;;;8.09;100.00
21129;BME280;10722;51.910;8.352;2023-04-01T05:17:31;98764.53;;;8.09;100.00
21129;BME280;10722;51.910;8.352;2023-04-01T05:20:16;98755.09;;;8.09;100.00
21129;BME280;10722;51.910;8.352;2023-04-01T05:23:01;98764.53;;;8.12;100.00
21129;BME280;10722;51.910;8.352;2023-04-01T05:25:48;98760.25;;;8.09;100.00
21129;BME280;10722;51.910;8.352;2023-04-01T05:28:33;98763.69;;;8.12;100.00
21129;BME280;10722;51.910;8.352;2023-04-01T05:31:18;98756.81;;;8.12;100.00
21129;BME280;10722;51.910;8.352;2023-04-01T05:34:04;98766.25;;;8.12;100.00
21129;BME280;10722;51.910;8.352;2023-04-01T05:36:49;98763.66;;;8.15;100.00
21129;BME280;10722;51.910;8.352;2023-04-01T05:39:38;98763.66;;;8.10;100.00
21129;BME280;10722;51.910;8.352;2023-04-01T05:42:23;98763.69;;;8.12;100.00
21129;BME280;10722;51.910;8.352;2023-04-01T05:45:08;98769.66;;;8.14;100.00
21129;BME280;10722;51.910;8.352;2023-04-01T05:47:54;98766.25;;;8.15;100.00
21129;BME280;10722;51.910;8.352;2023-04-01T05:50:40;98767.97;;;8.14;100.00
21129;BME280;10722;51.910;8.352;2023-04-01T05:53:25;98777.41;;;8.17;100.00
21129;BME280;10722;51.910;8.352;2023-04-01T05:56:11;98775.66;;;8.19;100.00
21129;BME280;10722;51.910;8.352;2023-04-01T05:58:56;98778.28;;;8.14;100.00
21129;BME280;10722;51.910;8.352;2023-04-01T06:01:42;98780.81;;;8.19;100.00
21129;BME280;10722;51.910;8.352;2023-04-01T06:04:34;98781.69;;;8.16;100.00
21129;BME280;10722;51.910;8.352;2023-04-01T06:07:20;98777.38;;;8.14;100.00
21129;BME280;10722;51.910;8.352;2023-04-01T06:10:12;98785.13;;;8.11;100.00
21129;BME280;10722;51.910;8.352;2023-04-01T06:13:07;98795.44;;;8.11;100.00
21129;BME280;10722;51.910;8.352;2023-04-01T06:19:26;98803.16;;;8.07;100.00
21129;BME280;10722;51.910;8.352;2023-04-01T06:31:50;98806.63;;;7.99;100.00
21129;BME280;10722;51.910;8.352;2023-04-01T06:49:54;98817.81;;;7.98;100.00
21129;BME280;10722;51.910;8.352;2023-04-01T06:56:17;98835.81;;;7.99;100.00
21129;BME280;10722;51.910;8.352;2023-04-01T06:59:09;98830.66;;;8.04;100.00
21129;BME280;10722;51.910;8.352;2023-04-01T07:02:05;98836.66;;;8.06;100.00
21129;BME280;10722;51.910;8.352;2023-04-01T07:05:02;98834.06;;;8.11;100.00
21129;BME280;10722;51.910;8.352;2023-04-01T07:07:52;98847.78;;;8.16;100.00
21129;BME280;10722;51.910;8.352;2023-04-01T07:10:56;98843.47;;;8.19;100.00
21129;BME280;10722;51.910;8.352;2023-04-01T07:13:53;98845.19;;;8.25;100.00
21129;BME280;10722;51.910;8.352;2023-04-01T07:16:44;98847.75;;;8.25;100.00
21129;BME280;10722;51.910;8.352;2023-04-01T07:19:45;98849.47;;;8.34;100.00
21129;BME280;10722;51.910;8.352;2023-04-01T07:25:22;98855.47;;;8.37;100.00
21129;BME280;10722;51.910;8.352;2023-04-01T07:28:15;98856.31;;;8.44;100.00
21129;BME280;10722;51.910;8.352;2023-04-01T07:34:12;98858.00;;;8.52;100.00
21129;BME280;10722;51.910;8.352;2023-04-01T07:37:11;98862.28;;;8.55;100.00
21129;BME280;10722;51.910;8.352;2023-04-01T07:49:04;98866.50;;;8.74;100.00
21129;BME280;10722;51.910;8.352;2023-04-01T07:52:05;98873.38;;;8.82;100.00
21129;BME280;10722;51.910;8.352;2023-04-01T08:01:03;98870.75;;;8.83;100.00
21129;BME280;10722;51.910;8.352;2023-04-01T08:13:16;98872.41;;;8.96;100.00
21129;BME280;10722;51.910;8.352;2023-04-01T08:22:09;98888.72;;;9.02;100.00
21129;BME280;10722;51.910;8.352;2023-04-01T08:24:58;98885.19;;;9.15;100.00
21129;BME280;10722;51.910;8.352;2023-04-01T08:27:53;98888.59;;;9.20;100.00
21129;BME280;10722;51.910;8.352;2023-04-01T08:30:55;98885.97;;;9.31;100.00
21129;BME280;10722;51.910;8.352;2023-04-01T08:33:44;98892.81;;;9.38;100.00
21129;BME280;10722;51.910;8.352;2023-04-01T08:36:37;98889.28;;;9.45;100.00
21129;BME280;10722;51.910;8.352;2023-04-01T08:39:41;98886.72;;;9.47;100.00
21129;BME280;10722;51.910;8.352;2023-04-01T09:04:33;98906.41;;;9.58;100.00
21129;BME280;10722;51.910;8.352;2023-04-01T09:25:44;98915.66;;;9.88;100.00
21129;BME280;10722;51.910;8.352;2023-04-01T09:28:58;98912.03;;;10.08;100.00
21129;BME280;10722;51.910;8.352;2023-04-01T09:32:15;98911.94;;;10.17;100.00
21129;BME280;10722;51.910;8.352;2023-04-01T09:35:21;98923.91;;;10.26;100.00
21129;BME280;10722;51.910;8.352;2023-04-01T09:38:29;98921.25;;;10.37;100.00
21129;BME280;10722;51.910;8.352;2023-04-01T09:41:32;98924.06;;;10.09;100.00
21129;BME280;10722;51.910;8.352;2023-04-01T09:44:36;98926.63;;;10.10;100.00
21129;BME280;10722;51.910;8.352;2023-04-01T09:50:31;98925.88;;;10.01;100.00
21129;BME280;10722;51.910;8.352;2023-04-01T10:12:17;98948.25;;;10.02;100.00
21129;BME280;10722;51.910;8.352;2023-04-01T10:18:40;98956.16;;;9.83;100.00
21129;BME280;10722;51.910;8.352;2023-04-01T10:30:56;98970.69;;;9.97;100.00
21129;BME280;10722;51.910;8.352;2023-04-01T10:49:46;98976.63;;;10.08;100.00
21129;BME280;10722;51.910;8.352;2023-04-01T11:17:27;98988.50;;;10.32;100.00
21129;BME280;10722;51.910;8.352;2023-04-01T11:20:32;98987.69;;;10.22;100.00
21129;BME280;10722;51.910;8.352;2023-04-01T11:23:43;98994.56;;;10.22;100.00
21129;BME280;10722;51.910;8.352;2023-04-01T11:39:17;99007.72;;;9.97;100.00
21129;BME280;10722;51.910;8.352;2023-04-01T11:57:35;99033.41;;;10.13;100.00
21129;BME280;10722;51.910;8.352;2023-04-01T12:07:13;99049.88;;;10.02;100.00
21129;BME280;10722;51.910;8.352;2023-04-01T12:13:20;99063.50;;;10.30;100.00
21129;BME280;10722;51.910;8.352;2023-04-01T12:19:24;99065.22;;;10.21;100.00
21129;BME280;10722;51.910;8.352;2023-04-01T12:22:31;99060.03;;;10.31;100.00
21129;BME280;10722;51.910;8.352;2023-04-01T12:31:39;99069.41;;;10.43;100.00
21129;BME280;10722;51.910;8.352;2023-04-01T12:50:14;99093.72;;;10.13;100.00
21129;BME280;10722;51.910;8.352;2023-04-01T12:53:17;99095.38;;;10.25;100.00
21129;BME280;10722;51.910;8.352;2023-04-01T12:56:14;99097.97;;;10.25;100.00
21129;BME280;10722;51.910;8.352;2023-04-01T13:02:30;99106.53;;;10.35;100.00
21129;BME280;10722;51.910;8.352;2023-04-01T13:11:23;99111.56;;;10.50;100.00
21129;BME280;10722;51.910;8.352;2023-04-01T13:21:06;99121.81;;;10.62;100.00
21129;BME280;10722;51.910;8.352;2023-04-01T13:26:58;99120.09;;;10.61;100.00
21129;BME280;10722;51.910;8.352;2023-04-01T13:44:51;99113.00;;;10.83;100.00
21129;BME280;10722;51.910;8.352;2023-04-01T14:09:10;99121.59;;;10.88;100.00
21129;BME280;10722;51.910;8.352;2023-04-01T14:21:29;99141.41;;;10.89;100.00
21129;BME280;10722;51.910;8.352;2023-04-01T14:24:41;99150.84;;;10.96;100.00
21129;BME280;10722;51.910;8.352;2023-04-01T14:30:36;99150.81;;;10.98;100.00
21129;BME280;10722;51.910;8.352;2023-04-01T14:33:37;99155.22;;;10.90;100.00
21129;BME280;10722;51.910;8.352;2023-04-01T14:43:46;99168.03;;;11.02;100.00
21129;BME280;10722;51.910;8.352;2023-04-01T14:46:55;99171.63;;;10.87;100.00
21129;BME280;10722;51.910;8.352;2023-04-01T14:49:50;99169.03;;;10.86;100.00
21129;BME280;10722;51.910;8.352;2023-04-01T14:52:46;99166.38;;;10.95;100.00
21129;BME280;10722;51.910;8.352;2023-04-01T14:55:50;99161.34;;;10.78;100.00
21129;BME280;10722;51.910;8.352;2023-04-01T14:58:47;99161.25;;;10.90;100.00
21129;BME280;10722;51.910;8.352;2023-04-01T15:01:40;99159.53;;;10.88;100.00
21129;BME280;10722;51.910;8.352;2023-04-01T15:19:37;99191.34;;;11.02;100.00
21129;BME280;10722;51.910;8.352;2023-04-01T15:22:31;99202.56;;;10.99;100.00
21129;BME280;10722;51.910;8.352;2023-04-01T15:25:42;99208.69;;;10.86;100.00
21129;BME280;10722;51.910;8.352;2023-04-01T15:28:40;99217.25;;;10.96;100.00
21129;BME280;10722;51.910;8.352;2023-04-01T15:31:38;99218.16;;;10.89;100.00
21129;BME280;10722;51.910;8.352;2023-04-01T15:37:37;99232.06;;;10.79;100.00
21129;BME280;10722;51.910;8.352;2023-04-01T15:43:50;99232.94;;;10.76;100.00
21129;BME280;10722;51.910;8.352;2023-04-01T15:46:47;99247.50;;;10.91;100.00
21129;BME280;10722;51.910;8.352;2023-04-01T15:49:41;99253.59;;;10.81;100.00
21129;BME280;10722;51.910;8.352;2023-04-01T15:55:27;99263.03;;;10.86;100.00
21129;BME280;10722;51.910;8.352;2023-04-01T16:10:52;99280.53;;;10.44;100.00
21129;BME280;10722;51.910;8.352;2023-04-01T16:23:13;99296.94;;;10.42;100.00
21129;BME280;10722;51.910;8.352;2023-04-01T16:26:08;99300.41;;;10.39;100.00
21129;BME280;10722;51.910;8.352;2023-04-01T16:32:02;99310.75;;;10.35;100.00
21129;BME280;10722;51.910;8.352;2023-04-01T16:38:33;99340.03;;;10.26;100.00
21129;BME280;10722;51.910;8.352;2023-04-01T16:41:36;99348.66;;;10.32;100.00
21129;BME280;10722;51.910;8.352;2023-04-01T16:44:26;99343.50;;;10.29;100.00
21129;BME280;10722;51.910;8.352;2023-04-01T16:47:17;99351.25;;;10.20;100.00
21129;BME280;10722;51.910;8.352;2023-04-01T16:50:25;99359.88;;;10.25;100.00
21129;BME280;10722;51.910;8.352;2023-04-01T16:53:53;99365.91;;;10.26;100.00
21129;BME280;10722;51.910;8.352;2023-04-01T16:56:52;99374.50;;;10.32;100.00
21129;BME280;10722;51.910;8.352;2023-04-01T16:59:53;99382.25;;;10.45;100.00
21129;BME280;10722;51.910;8.352;2023-04-01T17:02:47;99384.00;;;10.37;100.00
21129;BME280;10722;51.910;8.352;2023-04-01T17:11:47;99398.59;;;10.47;100.00
21129;BME280;10722;51.910;8.352;2023-04-01T17:14:52;99403.81;;;10.31;100.00
21129;BME280;10722;51.910;8.352;2023-04-01T17:20:40;99422.78;;;10.37;100.00
21129;BME280;10722;51.910;8.352;2023-04-01T17:24:15;99424.50;;;10.35;100.00
21129;BME280;10722;51.910;8.352;2023-04-01T17:31:00;99449.50;;;10.31;100.00
21129;BME280;10722;51.910;8.352;2023-04-01T17:42:45;99465.88;;;10.02;100.00
21129;BME280;10722;51.910;8.352;2023-04-01T17:45:43;99472.72;;;9.88;100.00
21129;BME280;10722;51.910;8.352;2023-04-01T17:54:56;99498.56;;;9.88;100.00
21129;BME280;10722;51.910;8.352;2023-04-01T18:04:04;99516.66;;;9.77;100.00
21129;BME280;10722;51.910;8.352;2023-04-01T18:19:02;99545.94;;;9.85;100.00
21129;BME280;10722;51.910;8.352;2023-04-01T18:21:51;99562.28;;;9.81;100.00
21129;BME280;10722;51.910;8.352;2023-04-01T18:25:04;99572.53;;;9.46;100.00
21129;BME280;10722;51.910;8.352;2023-04-01T18:31:13;99593.94;;;9.28;100.00
21129;BME280;10722;51.910;8.352;2023-04-01T18:37:18;99605.06;;;9.10;100.00
21129;BME280;10722;51.910;8.352;2023-04-01T18:40:15;99617.97;;;9.15;100.00
21129;BME280;10722;51.910;8.352;2023-04-01T18:43:09;99624.81;;;9.08;100.00
21129;BME280;10722;51.910;8.352;2023-04-01T18:45:59;99627.25;;;8.87;100.00
21129;BME280;10722;51.910;8.352;2023-04-01T18:49:15;99634.97;;;8.87;100.00
21129;BME280;10722;51.910;8.352;2023-04-01T18:52:34;99634.97;;;8.82;100.00
21129;BME280;10722;51.910;8.352;2023-04-01T18:55:39;99649.50;;;8.71;100.00
21129;BME280;10722;51.910;8.352;2023-04-01T19:01:18;99655.59;;;8.79;100.00
21129;BME280;10722;51.910;8.352;2023-04-01T19:04:24;99658.94;;;8.72;100.00
21129;BME280;10722;51.910;8.352;2023-04-01T19:25:42;99703.22;;;8.29;100.00
21129;BME280;10722;51.910;8.352;2023-04-01T19:31:44;99711.66;;;8.15;100.00
21129;BME280;10722;51.910;8.352;2023-04-01T19:37:40;99724.38;;;8.01;100.00
21129;BME280;10722;51.910;8.352;2023-04-01T19:43:50;99732.03;;;7.96;100.00
21129;BME280;10722;51.910;8.352;2023-04-01T19:50:19;99747.34;;;7.84;100.00
21129;BME280;10722;51.910;8.352;2023-04-01T19:53:17;99756.78;;;7.83;100.00
21129;BME280;10722;51.910;8.352;2023-04-01T19:56:42;99764.47;;;7.80;100.00
21129;BME280;10722;51.910;8.352;2023-04-01T19:59:38;99764.25;;;7.65;100.00
21129;BME280;10722;51.910;8.352;2023-04-01T20:02:39;99776.25;;;7.64;100.00
21129;BME280;10722;51.910;8.352;2023-04-01T20:06:18;99790.75;;;7.58;100.00
21129;BME280;10722;51.910;8.352;2023-04-01T20:12:51;99798.41;;;7.52;100.00
21129;BME280;10722;51.910;8.352;2023-04-01T20:15:45;99810.38;;;7.51;100.00
21129;BME280;10722;51.910;8.352;2023-04-01T20:21:35;99829.78;;;7.29;100.00
21129;BME280;10722;51.910;8.352;2023-04-01T20:24:42;99837.56;;;7.34;100.00
21129;BME280;10722;51.910;8.352;2023-04-01T20:27:33;99844.31;;;7.29;100.00
21129;BME280;10722;51.910;8.352;2023-04-01T20:42:23;99886.59;;;6.93;100.00
21129;BME280;10722;51.910;8.352;2023-04-01T20:46:03;99894.31;;;6.93;100.00
21129;BME280;10722;51.910;8.352;2023-04-01T20:49:30;99890.66;;;6.83;100.00
21129;BME280;10722;51.910;8.352;2023-04-01T20:52:34;99904.38;;;6.84;100.00
21129;BME280;10722;51.910;8.352;2023-04-01T21:02:36;99920.50;;;6.75;100.00
21129;BME280;10722;51.910;8.352;2023-04-01T21:18:48;99940.81;;;6.63;100.00
21129;BME280;10722;51.910;8.352;2023-04-01T21:21:44;99946.19;;;6.73;100.00
21129;BME280;10722;51.910;8.352;2023-04-01T21:24:43;99945.44;;;6.79;100.00
21129;BME280;10722;51.910;8.352;2023-04-01T21:31:50;99962.44;;;6.72;100.00
21129;BME280;10722;51.910;8.352;2023-04-01T21:35:39;99963.34;;;6.74;100.00
21129;BME280;10722;51.910;8.352;2023-04-01T21:39:18;99969.13;;;6.64;100.00
21129;BME280;10722;51.910;8.352;2023-04-01T21:46:15;99985.94;;;6.50;100.00
21129;BME280;10722;51.910;8.352;2023-04-01T21:56:17;100014.19;;;6.48;100.00
21129;BME280;10722;51.910;8.352;2023-04-01T22:03:07;100025.88;;;6.36;100.00
21129;BME280;10722;51.910;8.352;2023-04-01T22:09:12;100031.34;;;6.13;100.00
21129;BME280;10722;51.910;8.352;2023-04-01T22:12:12;100038.16;;;6.11;100.00
21129;BME280;10722;51.910;8.352;2023-04-01T22:15:16;100050.28;;;6.18;100.00
21129;BME280;10722;51.910;8.352;2023-04-01T22:18:13;100056.88;;;6.07;100.00
21129;BME280;10722;51.910;8.352;2023-04-01T22:21:18;100064.94;;;5.89;100.00
21129;BME280;10722;51.910;8.352;2023-04-01T22:30:50;100082.56;;;5.75;100.00
21129;BME280;10722;51.910;8.352;2023-04-01T22:43:05;100110.72;;;5.72;100.00
21129;BME280;10722;51.910;8.352;2023-04-01T22:54:53;100123.25;;;5.61;100.00
21129;BME280;10722;51.910;8.352;2023-04-01T23:00:45;100133.81;;;5.42;100.00
21129;BME280;10722;51.910;8.352;2023-04-01T23:03:36;100153.09;;;5.29;100.00
21129;BME280;10722;51.910;8.352;2023-04-01T23:06:27;100151.34;;;5.28;100.00
21129;BME280;10722;51.910;8.352;2023-04-01T23:09:26;100153.94;;;5.28;100.00
21129;BME280;10722;51.910;8.352;2023-04-01T23:12:15;100164.75;;;5.18;100.00
21129;BME280;10722;51.910;8.352;2023-04-01T23:15:02;100171.00;;;5.28;100.00
21129;BME280;10722;51.910;8.352;2023-04-01T23:18:18;100179.31;;;5.19;100.00
21129;BME280;10722;51.910;8.352;2023-04-01T23:21:32;100183.56;;;5.19;100.00
21129;BME280;10722;51.910;8.352;2023-04-01T23:24:45;100193.91;;;5.22;100.00
21129;BME280;10722;51.910;8.352;2023-04-01T23:30:53;100210.78;;;5.15;100.00
21129;BME280;10722;51.910;8.352;2023-04-01T23:33:39;100216.66;;;5.11;100.00
21129;BME280;10722;51.910;8.352;2023-04-01T23:36:26;100221.78;;;5.11;100.00
21129;BME280;10722;51.910;8.352;2023-04-01T23:39:28;100221.78;;;5.11;100.00
21129;BME280;10722;51.910;8.352;2023-04-01T23:42:19;100224.59;;;4.91;100.00
21129;BME280;10722;51.910;8.352;2023-04-01T23:45:17;100227.41;;;4.99;100.00
21129;BME280;10722;51.910;8.352;2023-04-01T23:48:04;100239.13;;;4.92;100.00
21129;BME280;10722;51.910;8.352;2023-04-01T23:50:50;100244.25;;;4.92;100.00
21129;BME280;10722;51.910;8.352;2023-04-01T23:53:43;100246.03;;;4.93;100.00
21129;BME280;10722;51.910;8.352;2023-04-01T23:56:50;100248.59;;;4.93;100.00
21129;BME280;10722;51.910;8.352;2023-04-01T23:59:37;100243.97;;;4.83;100.00
